Terminal Aerodrome Forecast
Issued by NWS Cleveland, OH

Home | Current Version | Previous Version | Text Only | Print | Product List | Glossary Off
Versions: 1 2 3 4 5 6 7 8 9 10 11 12 13 14 15 16 17 18 19 20 21 22 23 24 25 26 27 28 29 30 31 32 33 34

297
FTUS41 KCLE 172047 AAB
TAFCLE
TAF AMD
KCLE 172047Z 1721/1824 25014G22KT P6SM SCT015 OVC050
     FM172200 25012KT P6SM BKN025
      TEMPO 1722/1724 25012G22KT
     FM180400 25010KT 6SM BR OVC010
     FM180700 26010KT 5SM -SHRA BR OVC006
     FM181400 27008KT P6SM OVC008
     FM182000 27008KT P6SM OVC010=

USA.gov is the U.S. government's official web portal to all federal, state and local government web resources and services.